ASIAQ
Weather Now
GREENLAND SURVEY
Sorting:
| Location |
Updated [WGT/WGST] |
Temperature [°C] |
Wind [m/s] |
Air pressure [hPa] |
Relative humidity [%] |
Precipitation [mm] |
| Present | Wind chill | Speed | Max |
| Qaanaaq | 03.09 11:00 | 3,4 | 1,3 | 2,2 ⇘ | 2,4 | 1013 | 79 | 0,0 |
| Kitsissut | 03.09 11:00 | 1,7 | -1,1 | 2,6 ⇒ | 3,6 | 1014 | 100 | n/a |
| Kitsissorsuit | 03.09 10:00 | 2,7 | -1,9 | 5,7 ⇐ | 6,7 | 1010 | 54 | n/a |
| Upernavik | 03.09 11:00 | 3,9 | 2,7 | 1,4 ⇓ | 3,0 | 999 | 60 | 0,0 |
| Qaarsut | 03.09 11:00 | 3,4 | -1,2 | 6,1 ⇐ | 7,1 | 1003 | 51 | 0,0 |
| Nuussuaq | 03.09 10:00 | 6,7 | 3,9 | 4,1 ⇖ | 8,2 | 1008 | 35 | n/a |
| Qeqertarsuaq | 03.09 11:00 | 6,7 | 5,9 | 1,5 ⇐ | 2,9 | 1009 | 67 | 0,0 |
| Ilulissat | 03.09 11:00 | 4,5 | 2,6 | 2,1 ⇒ | 3,0 | 1006 | 50 | 0,0 |
| Qasigiannguit | 03.09 11:00 | 5,2 | 1,9 | 4,6 ⇙ | 5,6 | 1006 | 58 | n/a |
| Aasiaat | 03.09 11:00 | 4,5 | 0,6 | 5,0 ⇓ | 8,3 | 1005 | 72 | 0,0 |
| Kangerlussuaq | 03.09 11:00 | 6,1 | 5,4 | 1,3 ⇑ | 1,9 | 1001 | 87 | n/a |
| Sisimiut | 03.09 11:00 | 7,9 | n/a | 0,0 ⇓ | 0,5 | 1007 | 79 | 0,0 |
| Maniitsoq | 03.09 11:00 | 5,2 | n/a | 1,0 ⇑ | 3,0 | 1004 | 95 | 0,0 |
| Sioralik | 03.09 11:00 | 5,3 | 3,7 | 2,1 ⇖ | 3,1 | n/a | n/a | n/a |
| Niaqornaa | 03.09 11:00 | 4,4 | n/a | 0,6 ⇖ | 1,0 | 1001 | 100 | n/a |
| Qeqertannguaq | 03.09 11:00 | 5,3 | 1,1 | 6,5 ⇓ | 7,9 | n/a | 93 | n/a |
| Kapisillit | 03.09 11:00 | 4,9 | 2,0 | 3,4 ⇐ | 5,6 | 998 | 100 | 1,0 |
| Kuanninnguit | 03.09 11:00 | 4,9 | 3,6 | 1,7 ⇖ | 2,3 | 1000 | 98 | n/a |
| Nuuk City | 03.09 11:00 | 5,2 | 4,1 | 1,6 ⇑ | 2,4 | 997 | 96 | n/a |
| Ukiiviit | 03.09 10:00 | 4,5 | 1,8 | 3,1 ⇑ | 3,6 | 1005 | 99 | n/a |
| Paamiut | 03.09 11:00 | 4,3 | 2,7 | 1,8 ⇖ | 2,2 | 1003 | 100 | 1,0 |
| Narsarsuaq | 03.09 11:00 | 6,9 | 6,1 | 1,5 ⇗ | 2,6 | 1004 | 77 | n/a |
| Narsaq | 03.09 11:00 | 3,0 | 1,2 | 1,9 ⇒ | 2,5 | 1005 | 94 | 0,0 |
| Nunarsuit | 03.09 11:00 | 5,1 | 4,0 | 1,5 ⇖ | 2,1 | 1004 | 100 | n/a |
| Upernaviarsuk | 03.09 11:00 | 5,6 | 4,5 | 1,6 ⇑ | 2,9 | 1007 | 91 | n/a |
| Qaqortoq | 03.09 11:00 | 5,2 | n/a | 0,9 ⇖ | 2,3 | 1001 | 87 | 0,0 |
| Angisoq | 03.09 10:00 | 3,5 | 1,6 | 2,1 ⇙ | 2,1 | 1007 | 99 | n/a |
| Prins Christian Sund | 03.09 11:00 | 5,7 | 2,7 | 4,1 ⇓ | 7,2 | 998 | 77 | n/a |
| Nanortalik | 03.09 11:00 | 4,6 | n/a | 1,2 ⇗ | 2,3 | 1007 | 93 | n/a |
| Ikermiuarsuk | 03.09 10:00 | 4,2 | 0,0 | 5,7 ⇓ | 6,7 | 1005 | 78 | n/a |
| Ikermit | 03.09 11:00 | 2,5 | n/a | 1,0 ⇙ | 2,1 | 1001 | 53 | n/a |
| Kulusuk | 03.09 11:00 | 5,1 | 4,1 | 1,4 ⇘ | 2,2 | 1005 | 67 | n/a |
| Tasiilaq | 03.09 11:00 | 5,6 | 2,9 | 3,5 ⇓ | 6,0 | 1003 | 49 | 0,0 |
| Aputiteeq | 03.09 11:00 | 2,6 | -1,5 | 4,6 ⇙ | 5,7 | 1009 | 88 | n/a |
| Ittoqqortoormiit | 03.09 11:00 | n/a | n/a | n/a | 7,0 | n/a | n/a | n/a |
| Nerlerit Inaat | 03.09 11:00 | 5,3 | 2,0 | 4,0 ⇙ | 6,0 | 1013 | 70 | n/a |
| Daneborg | 03.09 11:00 | 3,1 | 1,1 | 2,0 ⇘ | 3,0 | 1013 | 55 | n/a |
| Zackenberg | 02.09 11:00 | 4,1 | n/a | 2,8 ⇗ | 4,2 | 1010 | 70 | 0,0 |
| Danmarkshavn | 03.09 11:00 | n/a | n/a | n/a | 7,0 | n/a | n/a | n/a |
| Henrik Krøyer Holme | 03.09 10:00 | -3,4 | -6,5 | 2,0 ⇓ | 3,0 | 1012 | 76 | n/a |
| Station Nord | 03.09 11:00 | -3,4 | -10,6 | 8,0 ⇓ | 21,0 | 1010 | 85 | n/a |
| Kap Morris Jesup | 03.09 11:00 | -5,1 | n/a | 1,0 ⇒ | 1,0 | 1014 | 90 | n/a |
Advanced version ⤻
Data source - Operated by - Disclaimer ▼